createdAt,value
2023-01-19T00:00:54.014Z,8.00
2023-01-19T00:03:21.865Z,9.67
2023-01-19T00:05:48.920Z,19.00
2023-01-19T00:08:16.201Z,13.00
2023-01-19T00:10:49.395Z,20.67
2023-01-19T00:13:16.496Z,21.33
2023-01-19T00:15:44.173Z,17.33
2023-01-19T00:18:11.357Z,27.33
2023-01-19T00:20:39.713Z,26.33
2023-01-19T00:23:08.419Z,27.00
2023-01-19T00:25:36.159Z,22.00
2023-01-19T00:28:03.147Z,22.00
2023-01-19T00:30:30.165Z,22.00
2023-01-19T00:32:57.184Z,15.67
2023-01-19T00:35:24.218Z,27.00
2023-01-19T00:37:51.480Z,26.33
2023-01-19T00:40:18.952Z,23.67
2023-01-19T00:42:46.114Z,17.33
2023-01-19T00:45:22.015Z,23.00
2023-01-19T00:47:54.909Z,16.00
2023-01-19T00:50:21.792Z,13.00
2023-01-19T00:52:48.707Z,8.67
2023-01-19T00:55:16.790Z,10.33
2023-01-19T00:57:44.026Z,8.00
2023-01-19T01:00:17.754Z,8.67
2023-01-19T01:02:44.988Z,6.67
2023-01-19T01:05:13.351Z,8.00
2023-01-19T01:07:44.202Z,13.00
2023-01-19T01:10:29.467Z,12.00
2023-01-19T01:12:58.924Z,9.00
2023-01-19T01:15:28.233Z,16.00
2023-01-19T01:17:55.434Z,9.00
2023-01-19T01:20:27.255Z,11.33
2023-01-19T01:22:55.670Z,27.67
2023-01-19T01:25:26.199Z,33.00
2023-01-19T01:27:53.930Z,27.67
2023-01-19T01:30:21.722Z,32.00
2023-01-19T01:32:49.200Z,27.00
2023-01-19T01:35:17.047Z,23.67
2023-01-19T01:37:44.398Z,16.33
2023-01-19T01:40:14.110Z,14.67
2023-01-19T01:42:42.603Z,0.00
2023-01-19T01:45:38.596Z,11.00
2023-01-19T01:48:17.426Z,5.67
2023-01-19T01:51:10.175Z,5.00
2023-01-19T01:53:39.049Z,12.00
2023-01-19T01:56:12.600Z,28.33
2023-01-19T01:58:40.785Z,27.00
2023-01-19T02:01:29.227Z,29.00
2023-01-19T02:03:57.749Z,36.67
2023-01-19T02:06:25.646Z,27.00
2023-01-19T02:09:50.865Z,37.25
2023-01-19T02:12:53.316Z,32.00
2023-01-19T02:15:43.019Z,31.33
2023-01-19T02:18:27.761Z,32.67
2023-01-19T02:21:34.346Z,34.33
2023-01-19T02:24:22.756Z,30.33
2023-01-19T02:27:08.629Z,29.00
2023-01-19T02:29:53.175Z,31.00
2023-01-19T02:32:20.161Z,35.00
2023-01-19T02:34:47.137Z,34.00
2023-01-19T02:37:17.514Z,33.67
2023-01-19T02:40:00.715Z,35.33
2023-01-19T02:42:33.535Z,30.00
2023-01-19T02:45:01.175Z,36.00
2023-01-19T02:47:28.113Z,34.25
2023-01-19T02:49:59.730Z,31.00
2023-01-19T02:52:28.292Z,29.00
2023-01-19T02:55:18.527Z,23.00
2023-01-19T02:57:53.458Z,16.67
2023-01-19T03:00:20.405Z,13.33
2023-01-19T03:03:15.576Z,12.00
2023-01-19T03:06:09.023Z,7.67
2023-01-19T03:09:11.101Z,6.33
2023-01-19T03:11:42.326Z,11.00
2023-01-19T03:14:14.871Z,8.00
2023-01-19T03:16:46.080Z,8.33
2023-01-19T03:19:22.188Z,11.00
2023-01-19T03:21:54.849Z,7.67
2023-01-19T03:24:24.841Z,6.00
2023-01-19T03:27:01.262Z,16.67
2023-01-19T03:29:35.159Z,9.67
2023-01-19T03:32:07.212Z,26.33
2023-01-19T03:34:36.277Z,15.00
2023-01-19T03:37:05.327Z,6.00
2023-01-19T03:39:32.521Z,12.33
2023-01-19T03:42:04.453Z,12.00
2023-01-19T03:44:35.040Z,12.00
2023-01-19T03:47:03.056Z,16.67
2023-01-19T03:49:32.013Z,18.33
2023-01-19T03:51:59.517Z,10.67
2023-01-19T03:54:26.894Z,11.00
2023-01-19T03:56:54.244Z,0.00
2023-01-19T03:59:22.114Z,4.33
2023-01-19T04:01:49.620Z,11.67
2023-01-19T04:04:16.905Z,11.67
2023-01-19T04:06:44.208Z,21.33
2023-01-19T04:09:11.222Z,20.00
2023-01-19T04:11:38.213Z,21.33
2023-01-19T04:14:05.237Z,17.33
2023-01-19T04:16:32.169Z,25.33
2023-01-19T04:18:59.027Z,22.00
2023-01-19T04:21:26.018Z,16.00
2023-01-19T04:23:53.475Z,12.00
2023-01-19T04:26:20.689Z,12.67
2023-01-19T04:28:47.588Z,17.33
2023-01-19T04:31:14.733Z,25.33
2023-01-19T04:33:41.710Z,22.67
2023-01-19T04:36:09.004Z,17.00
2023-01-19T04:38:36.352Z,15.00
2023-01-19T04:41:03.487Z,11.33
2023-01-19T04:43:30.420Z,27.33
2023-01-19T04:45:57.431Z,27.00
2023-01-19T04:48:24.427Z,22.67
2023-01-19T04:50:52.777Z,18.67
2023-01-19T04:53:19.930Z,15.00
2023-01-19T04:55:47.038Z,9.00
2023-01-19T04:58:14.151Z,9.00
2023-01-19T05:00:41.114Z,3.50
2023-01-19T05:03:08.162Z,6.00
2023-01-19T05:05:35.264Z,5.33
2023-01-19T05:08:02.730Z,11.67
2023-01-19T05:10:29.786Z,13.00
2023-01-19T05:12:56.789Z,15.00
2023-01-19T05:15:23.902Z,13.33
2023-01-19T05:17:50.955Z,10.33
2023-01-19T05:20:18.103Z,11.00
2023-01-19T05:22:52.909Z,11.00
2023-01-19T05:25:20.158Z,16.67
2023-01-19T05:27:47.181Z,12.67
2023-01-19T05:30:14.736Z,13.67
2023-01-19T05:32:41.705Z,8.00
2023-01-19T05:35:09.271Z,15.33
2023-01-19T05:37:36.318Z,29.67
2023-01-19T05:40:03.449Z,30.67
2023-01-19T05:42:32.133Z,22.33
2023-01-19T05:44:59.851Z,23.67
2023-01-19T05:47:26.903Z,22.00
2023-01-19T05:49:53.844Z,20.00
2023-01-19T05:52:20.803Z,17.33
2023-01-19T05:54:48.528Z,23.00
2023-01-19T05:57:15.565Z,20.00
2023-01-19T05:59:43.860Z,16.33
2023-01-19T06:02:11.027Z,23.00
2023-01-19T06:04:38.116Z,18.33
2023-01-19T06:07:07.166Z,15.00
2023-01-19T06:09:34.267Z,17.00
2023-01-19T06:12:01.321Z,15.67
2023-01-19T06:14:28.376Z,12.00
2023-01-19T06:16:55.316Z,9.00
2023-01-19T06:19:22.242Z,15.33
2023-01-19T06:21:52.492Z,22.33
2023-01-19T06:24:20.034Z,20.00
2023-01-19T06:26:47.279Z,13.00
2023-01-19T06:29:14.810Z,13.00
2023-01-19T06:31:42.216Z,9.00
2023-01-19T06:34:10.174Z,7.67
2023-01-19T06:36:37.178Z,8.00
2023-01-19T06:39:06.190Z,23.67
2023-01-19T06:41:36.954Z,27.00
2023-01-19T06:44:04.026Z,27.00
2023-01-19T06:46:31.556Z,26.33
2023-01-19T06:48:58.518Z,20.00
2023-01-19T06:51:25.782Z,16.00
2023-01-19T06:53:52.709Z,13.00
2023-01-19T06:56:19.631Z,9.33
2023-01-19T06:58:48.653Z,15.67
2023-01-19T07:01:15.813Z,13.67
2023-01-19T07:03:42.923Z,11.00
2023-01-19T07:06:10.214Z,8.67
2023-01-19T07:08:38.727Z,6.67
2023-01-19T07:11:25.279Z,5.25
2023-01-19T07:13:55.970Z,5.00
2023-01-19T07:16:24.060Z,2.00
2023-01-19T07:18:51.455Z,11.33
2023-01-19T07:21:19.373Z,11.67
2023-01-19T07:23:52.577Z,15.00
2023-01-19T07:26:21.619Z,14.33
2023-01-19T07:28:49.046Z,6.67
2023-01-19T07:31:16.357Z,12.00
2023-01-19T07:33:43.441Z,10.67
2023-01-19T07:36:10.957Z,17.00
2023-01-19T07:38:37.971Z,23.00
2023-01-19T07:41:07.999Z,35.33
2023-01-19T07:43:35.326Z,35.00
2023-01-19T07:46:04.994Z,35.00
2023-01-19T07:48:32.046Z,32.00
2023-01-19T07:51:05.935Z,29.67
2023-01-19T07:53:33.050Z,25.00
2023-01-19T07:56:00.112Z,24.00
2023-01-19T07:58:27.108Z,16.00
2023-01-19T08:00:54.281Z,19.00
2023-01-19T08:03:21.316Z,13.67
2023-01-19T08:05:53.009Z,12.33
2023-01-19T08:08:20.687Z,12.33
2023-01-19T08:10:50.777Z,12.00
2023-01-19T08:13:18.096Z,8.25
2023-01-19T08:15:45.315Z,6.50
2023-01-19T08:18:12.262Z,15.67
2023-01-19T08:20:39.420Z,18.33
2023-01-19T08:23:06.393Z,13.00
2023-01-19T08:25:35.482Z,12.00
2023-01-19T08:28:03.690Z,13.00
2023-01-19T08:30:30.797Z,27.00
2023-01-19T08:33:04.357Z,21.00
2023-01-19T08:35:32.829Z,17.00
2023-01-19T08:38:01.814Z,29.00
2023-01-19T08:40:36.518Z,36.00
2023-01-19T08:43:08.067Z,35.33
2023-01-19T08:45:41.662Z,31.00
2023-01-19T08:48:08.761Z,27.00
2023-01-19T08:50:35.759Z,26.33
2023-01-19T08:53:06.540Z,36.33
2023-01-19T08:55:36.108Z,37.25
2023-01-19T08:58:04.614Z,34.00
2023-01-19T09:00:38.204Z,37.00
2023-01-19T09:03:09.200Z,41.75
2023-01-19T09:05:39.016Z,37.50
2023-01-19T09:08:09.487Z,38.25
2023-01-19T09:10:38.271Z,39.00
2023-01-19T09:13:08.650Z,42.00
2023-01-19T09:15:37.879Z,36.75
2023-01-19T09:18:08.012Z,39.50
2023-01-19T09:20:36.378Z,36.33
2023-01-19T09:23:03.697Z,36.00
2023-01-19T09:25:31.629Z,37.33
2023-01-19T09:28:00.771Z,37.33
2023-01-19T09:30:28.087Z,44.00
2023-01-19T09:32:55.118Z,41.00
2023-01-19T09:35:22.276Z,38.25
2023-01-19T09:37:49.214Z,40.50
2023-01-19T09:40:20.966Z,36.00
2023-01-19T09:42:53.728Z,41.50
2023-01-19T09:45:32.861Z,33.75
2023-01-19T09:48:01.842Z,35.67
2023-01-19T09:50:40.049Z,40.00
2023-01-19T09:53:50.799Z,42.25
2023-01-19T09:56:20.435Z,40.00
2023-01-19T09:58:49.648Z,43.25
2023-01-19T10:01:37.786Z,42.00
2023-01-19T10:04:19.492Z,44.50
2023-01-19T10:06:48.625Z,43.50
2023-01-19T10:09:32.129Z,41.50
2023-01-19T10:12:24.184Z,40.00
2023-01-19T10:15:05.198Z,35.25
2023-01-19T10:17:46.922Z,38.00
2023-01-19T10:20:45.262Z,39.00
2023-01-19T10:23:36.847Z,38.00
2023-01-19T10:26:10.683Z,38.50
2023-01-19T10:28:39.090Z,43.25
2023-01-19T10:31:07.741Z,40.25
2023-01-19T10:33:35.543Z,39.25
2023-01-19T10:36:28.623Z,37.00
2023-01-19T10:38:55.679Z,38.00
2023-01-19T10:41:30.873Z,39.00
2023-01-19T10:44:04.602Z,39.50
2023-01-19T10:46:44.425Z,37.50
2023-01-19T10:49:37.528Z,39.75
2023-01-19T10:52:07.796Z,37.00
2023-01-19T10:54:37.616Z,36.00
2023-01-19T10:57:11.975Z,40.25
2023-01-19T10:59:53.364Z,39.25
2023-01-19T11:02:26.766Z,38.00
2023-01-19T11:04:56.103Z,38.00
2023-01-19T11:07:33.840Z,36.00
2023-01-19T11:10:22.123Z,35.00
2023-01-19T11:13:13.757Z,36.00
2023-01-19T11:15:59.136Z,32.00
2023-01-19T11:18:36.831Z,35.75
2023-01-19T11:21:16.215Z,34.00
2023-01-19T11:23:52.987Z,33.00
2023-01-19T11:26:41.263Z,35.00
2023-01-19T11:29:24.156Z,32.00
2023-01-19T11:31:53.425Z,35.33
2023-01-19T11:34:23.419Z,32.33
2023-01-19T11:37:05.662Z,32.33
2023-01-19T11:39:50.059Z,32.33
2023-01-19T11:42:19.132Z,30.33
2023-01-19T11:44:49.014Z,31.00
2023-01-19T11:47:43.043Z,28.33
2023-01-19T11:50:24.411Z,31.00
2023-01-19T11:53:30.927Z,31.00
2023-01-19T11:56:14.432Z,32.67
2023-01-19T11:58:48.475Z,31.67
2023-01-19T12:01:34.581Z,32.00
2023-01-19T12:04:12.083Z,31.67
2023-01-19T12:06:44.782Z,31.67
2023-01-19T12:09:26.250Z,30.33
2023-01-19T12:12:08.120Z,26.00
2023-01-19T12:14:53.373Z,27.67
2023-01-19T12:17:47.625Z,31.00
2023-01-19T12:20:29.525Z,30.67
2023-01-19T12:23:26.031Z,31.00
2023-01-19T12:26:05.058Z,30.00
2023-01-19T12:28:37.326Z,26.33
2023-01-19T12:31:04.786Z,30.00
2023-01-19T12:33:37.955Z,27.67
2023-01-19T12:36:07.232Z,30.00
2023-01-19T12:38:41.137Z,28.67
2023-01-19T12:41:38.536Z,31.00
2023-01-19T12:44:11.528Z,7.00
2023-01-19T12:46:43.661Z,22.00
2023-01-19T12:49:35.660Z,31.00
2023-01-19T12:52:34.453Z,29.33
2023-01-19T12:55:20.233Z,30.00
2023-01-19T12:58:02.288Z,31.67
2023-01-19T13:00:34.247Z,30.00
2023-01-19T13:03:05.337Z,29.33
2023-01-19T13:05:33.113Z,26.67
2023-01-19T13:08:03.422Z,28.00
2023-01-19T13:11:09.787Z,30.00
2023-01-19T13:13:44.135Z,31.67
2023-01-19T13:16:20.102Z,28.33
2023-01-19T13:18:57.670Z,30.00
2023-01-19T13:21:48.799Z,31.00
2023-01-19T13:24:17.196Z,30.00
2023-01-19T13:27:05.100Z,28.33
2023-01-19T13:29:35.757Z,30.00
2023-01-19T13:32:07.213Z,29.67
2023-01-19T13:34:40.869Z,31.00
2023-01-19T13:37:18.944Z,31.00
2023-01-19T13:39:50.299Z,31.00
2023-01-19T13:42:41.925Z,28.67
2023-01-19T13:45:38.293Z,31.00
2023-01-19T13:48:08.168Z,27.00
2023-01-19T13:50:40.520Z,29.00
2023-01-19T13:53:34.406Z,29.00
2023-01-19T13:56:18.684Z,26.00
2023-01-19T13:59:05.276Z,27.33
2023-01-19T14:01:33.304Z,27.33
2023-01-19T14:04:00.520Z,26.00
2023-01-19T14:06:36.957Z,22.67
2023-01-19T14:09:19.485Z,27.00
2023-01-19T14:12:04.294Z,24.00
2023-01-19T14:14:31.457Z,29.67
2023-01-19T14:16:59.719Z,28.67
2023-01-19T14:19:26.735Z,25.33
2023-01-19T14:22:02.159Z,30.00
2023-01-19T14:24:32.215Z,30.00
2023-01-19T14:27:12.260Z,27.00
2023-01-19T14:29:39.319Z,24.33
2023-01-19T14:32:16.163Z,30.00
2023-01-19T14:34:45.328Z,33.00
2023-01-19T14:37:36.359Z,32.00
2023-01-19T14:40:18.665Z,31.00
2023-01-19T14:42:57.767Z,30.00
2023-01-19T14:45:33.774Z,31.00
2023-01-19T14:48:04.227Z,29.33
2023-01-19T14:50:41.483Z,29.00
2023-01-19T14:53:16.195Z,27.00
2023-01-19T14:55:49.837Z,27.33
2023-01-19T14:58:19.242Z,27.00
2023-01-19T15:00:48.053Z,27.00
2023-01-19T15:03:15.214Z,29.67
2023-01-19T15:05:47.167Z,29.33
2023-01-19T15:08:24.131Z,30.00
2023-01-19T15:10:51.379Z,27.00
2023-01-19T15:13:22.607Z,28.00
2023-01-19T15:15:50.506Z,31.67
2023-01-19T15:18:22.520Z,33.00
2023-01-19T15:20:49.464Z,32.33
2023-01-19T15:23:16.355Z,31.00
2023-01-19T15:25:44.547Z,30.00
2023-01-19T15:28:19.542Z,28.33
2023-01-19T15:30:46.781Z,26.00
2023-01-19T15:33:25.371Z,29.00
2023-01-19T15:35:53.237Z,28.00
2023-01-19T15:38:22.616Z,27.67
2023-01-19T15:40:51.630Z,26.33
2023-01-19T15:43:18.871Z,26.00
2023-01-19T15:46:02.614Z,25.33
2023-01-19T15:48:29.748Z,27.33
2023-01-19T15:50:56.668Z,24.33
2023-01-19T15:53:24.587Z,16.67
2023-01-19T15:55:55.393Z,25.67
2023-01-19T15:58:23.854Z,21.00
2023-01-19T16:00:58.678Z,20.33
2023-01-19T16:03:26.450Z,25.33
2023-01-19T16:05:53.351Z,25.00
2023-01-19T16:08:22.221Z,30.33
2023-01-19T16:10:49.173Z,28.33
2023-01-19T16:13:16.144Z,26.33
2023-01-19T16:15:43.042Z,29.67
2023-01-19T16:18:10.033Z,29.00
2023-01-19T16:20:37.089Z,30.00
2023-01-19T16:23:19.322Z,33.00
2023-01-19T16:25:56.507Z,27.00
2023-01-19T16:28:23.803Z,30.00
2023-01-19T16:30:51.902Z,30.67
2023-01-19T16:33:19.441Z,30.33
2023-01-19T16:35:46.425Z,29.67
2023-01-19T16:38:13.332Z,28.67
2023-01-19T16:40:40.376Z,30.00
2023-01-19T16:43:07.258Z,23.67
2023-01-19T16:45:34.214Z,31.67
2023-01-19T16:48:01.166Z,27.00
2023-01-19T16:50:28.124Z,27.00
2023-01-19T16:52:58.375Z,30.00
2023-01-19T16:55:25.344Z,24.67
2023-01-19T16:57:52.814Z,29.00
2023-01-19T17:00:20.080Z,27.00
2023-01-19T17:02:47.026Z,30.33
2023-01-19T17:05:14.829Z,30.00
2023-01-19T17:07:41.788Z,30.33
2023-01-19T17:10:09.778Z,29.67
2023-01-19T17:12:36.937Z,30.00
2023-01-19T17:15:04.032Z,29.00
2023-01-19T17:17:30.987Z,29.00
2023-01-19T17:20:00.255Z,30.00
2023-01-19T17:22:27.210Z,30.00
2023-01-19T17:24:54.080Z,29.67
2023-01-19T17:27:21.022Z,21.33
2023-01-19T17:29:49.988Z,33.00
2023-01-19T17:32:17.025Z,30.00
2023-01-19T17:34:43.935Z,30.67
2023-01-19T17:37:10.814Z,28.67
2023-01-19T17:39:37.726Z,27.00
2023-01-19T17:42:04.668Z,31.00
2023-01-19T17:44:31.582Z,30.00
2023-01-19T17:46:59.974Z,26.67
2023-01-19T17:49:27.116Z,33.00
2023-01-19T17:51:55.148Z,31.00
2023-01-19T17:54:22.776Z,32.00
2023-01-19T17:56:51.195Z,32.67
2023-01-19T17:59:18.153Z,31.00
2023-01-19T18:01:49.992Z,30.67
2023-01-19T18:04:19.284Z,25.67
2023-01-19T18:06:49.387Z,33.00
2023-01-19T18:09:18.122Z,33.33
2023-01-19T18:11:47.065Z,31.33
2023-01-19T18:14:14.259Z,30.00
2023-01-19T18:16:41.643Z,27.00
2023-01-19T18:19:08.752Z,27.67
2023-01-19T18:21:35.981Z,26.67
2023-01-19T18:24:05.672Z,31.67
2023-01-19T18:26:35.218Z,31.67
2023-01-19T18:29:03.000Z,32.33
2023-01-19T18:31:30.548Z,35.75
2023-01-19T18:34:00.674Z,35.25
2023-01-19T18:36:28.346Z,38.75
2023-01-19T18:38:55.637Z,37.75
2023-01-19T18:41:23.014Z,36.75
2023-01-19T18:43:50.592Z,33.33
2023-01-19T18:46:20.228Z,37.25
2023-01-19T18:48:48.252Z,34.67
2023-01-19T18:51:22.226Z,37.25
2023-01-19T18:53:50.271Z,35.50
2023-01-19T18:56:17.894Z,37.00
2023-01-19T18:58:45.850Z,30.00
2023-01-19T19:01:31.562Z,33.33
2023-01-19T19:03:59.978Z,33.00
2023-01-19T19:06:28.825Z,31.00
2023-01-19T19:08:57.943Z,35.25
2023-01-19T19:11:26.349Z,35.00
2023-01-19T19:13:55.364Z,33.67
2023-01-19T19:16:24.282Z,33.75
2023-01-19T19:18:51.353Z,35.25
2023-01-19T19:21:20.536Z,38.25
2023-01-19T19:23:53.050Z,35.00
2023-01-19T19:26:20.708Z,30.00
2023-01-19T19:28:47.752Z,20.33
2023-01-19T19:31:20.690Z,33.00
2023-01-19T19:33:49.196Z,32.25
2023-01-19T19:36:16.129Z,30.00
2023-01-19T19:38:44.749Z,39.00
2023-01-19T19:41:15.065Z,36.50
2023-01-19T19:43:42.199Z,36.25
2023-01-19T19:46:11.737Z,36.25
2023-01-19T19:48:39.565Z,36.25
2023-01-19T19:51:23.793Z,32.33
2023-01-19T19:53:52.082Z,32.67
2023-01-19T19:56:21.711Z,33.00
2023-01-19T19:58:49.760Z,33.00
2023-01-19T20:01:19.685Z,35.67
2023-01-19T20:03:47.201Z,33.00
2023-01-19T20:06:18.411Z,35.67
2023-01-19T20:08:45.355Z,36.00
2023-01-19T20:11:15.910Z,32.75
2023-01-19T20:13:44.441Z,30.00
2023-01-19T20:16:17.117Z,31.33
2023-01-19T20:18:51.076Z,32.00
2023-01-19T20:21:19.637Z,32.33
2023-01-19T20:23:48.269Z,28.67
2023-01-19T20:26:18.220Z,29.00
2023-01-19T20:28:45.157Z,31.00
2023-01-19T20:31:21.949Z,25.67
2023-01-19T20:33:49.991Z,27.67
2023-01-19T20:36:17.393Z,16.00
2023-01-19T20:38:45.220Z,22.00
2023-01-19T20:41:13.636Z,16.67
2023-01-19T20:43:40.834Z,18.00
2023-01-19T20:46:07.788Z,19.00
2023-01-19T20:48:34.763Z,26.00
2023-01-19T20:51:05.151Z,21.33
2023-01-19T20:53:32.631Z,18.33
2023-01-19T20:56:05.258Z,18.67
2023-01-19T20:58:33.166Z,21.67
2023-01-19T21:01:00.199Z,23.00
2023-01-19T21:03:27.308Z,25.33
2023-01-19T21:05:54.243Z,28.00
2023-01-19T21:08:21.266Z,28.00
2023-01-19T21:10:48.215Z,29.33
2023-01-19T21:13:15.142Z,26.33
2023-01-19T21:15:42.057Z,19.00
2023-01-19T21:18:08.964Z,20.67
2023-01-19T21:20:36.002Z,16.67
2023-01-19T21:23:02.882Z,13.00
2023-01-19T21:25:29.888Z,22.67
2023-01-19T21:27:56.863Z,26.00
2023-01-19T21:30:23.913Z,20.67
2023-01-19T21:32:50.838Z,13.67
2023-01-19T21:35:17.781Z,16.00
2023-01-19T21:37:44.692Z,27.00
2023-01-19T21:40:12.560Z,29.00
2023-01-19T21:42:40.750Z,30.67
2023-01-19T21:45:08.912Z,26.00
2023-01-19T21:47:36.831Z,26.67
2023-01-19T21:50:04.530Z,22.33
2023-01-19T21:52:31.544Z,16.00
2023-01-19T21:54:58.534Z,23.33
2023-01-19T21:57:25.464Z,6.67
2023-01-19T21:59:52.359Z,9.00
2023-01-19T22:02:33.336Z,11.33
2023-01-19T22:05:06.771Z,13.33
2023-01-19T22:07:33.766Z,11.00
2023-01-19T22:10:00.664Z,9.00
2023-01-19T22:12:27.601Z,9.00
2023-01-19T22:14:54.602Z,9.67
2023-01-19T22:17:21.524Z,7.33
2023-01-19T22:19:48.802Z,1.67
2023-01-19T22:22:15.814Z,18.33
2023-01-19T22:24:46.808Z,13.00
2023-01-19T22:27:14.045Z,21.33
2023-01-19T22:29:40.990Z,20.00
2023-01-19T22:32:07.995Z,10.00
2023-01-19T22:34:35.124Z,13.00
2023-01-19T22:37:02.637Z,13.33
2023-01-19T22:39:29.525Z,19.00
2023-01-19T22:41:56.438Z,13.67
2023-01-19T22:44:23.821Z,17.00
2023-01-19T22:46:54.051Z,26.00
2023-01-19T22:49:23.891Z,19.33
2023-01-19T22:51:51.045Z,12.33
2023-01-19T22:54:17.957Z,11.00
2023-01-19T22:56:46.041Z,0.00
2023-01-19T22:59:13.044Z,8.00
2023-01-19T23:01:42.405Z,15.00
2023-01-19T23:04:13.361Z,13.00
2023-01-19T23:06:40.341Z,19.00
2023-01-19T23:09:12.282Z,19.00
2023-01-19T23:11:42.042Z,27.00
2023-01-19T23:14:12.305Z,28.67
2023-01-19T23:16:39.285Z,28.00
2023-01-19T23:19:06.260Z,27.00
2023-01-19T23:21:33.633Z,24.67
2023-01-19T23:24:03.609Z,19.33
2023-01-19T23:26:31.797Z,25.00
2023-01-19T23:29:02.022Z,23.00
2023-01-19T23:31:34.206Z,18.67
2023-01-19T23:34:07.247Z,22.00
2023-01-19T23:36:36.485Z,18.00
2023-01-19T23:39:12.544Z,15.00
2023-01-19T23:41:39.469Z,10.33
2023-01-19T23:44:06.373Z,7.33
2023-01-19T23:46:33.448Z,4.33
2023-01-19T23:49:00.409Z,5.00
2023-01-19T23:51:29.816Z,6.00
2023-01-19T23:53:58.285Z,11.00
2023-01-19T23:56:34.354Z,11.00
2023-01-19T23:59:04.191Z,23.00
